createdAt,value
2019-03-16T00:00:17.759Z,3.60
2019-03-16T00:02:47.619Z,4.27
2019-03-16T00:05:16.194Z,4.67
2019-03-16T00:07:44.752Z,5.07
2019-03-16T00:10:13.292Z,5.00
2019-03-16T00:12:41.745Z,5.00
2019-03-16T00:15:10.429Z,4.90
2019-03-16T00:17:38.970Z,5.00
2019-03-16T00:20:10.083Z,4.87
2019-03-16T00:22:40.246Z,4.40
2019-03-16T00:25:09.697Z,4.20
2019-03-16T00:27:38.326Z,4.07
2019-03-16T00:30:09.975Z,4.00
2019-03-16T00:32:38.527Z,4.00
2019-03-16T00:35:20.203Z,3.87
2019-03-16T00:37:48.699Z,3.80
2019-03-16T00:40:18.730Z,3.60
2019-03-16T00:42:47.253Z,3.50
2019-03-16T00:45:18.049Z,3.50
2019-03-16T00:47:47.173Z,3.10
2019-03-16T00:50:19.425Z,3.10
2019-03-16T00:52:55.657Z,3.03
2019-03-16T00:55:26.459Z,3.22
2019-03-16T00:57:58.510Z,3.02
2019-03-16T01:00:28.149Z,3.20
2019-03-16T01:03:01.933Z,2.80
2019-03-16T01:05:33.406Z,3.83
2019-03-16T01:08:03.769Z,2.72
2019-03-16T01:10:48.656Z,2.90
2019-03-16T01:13:18.473Z,3.10
2019-03-16T01:16:03.601Z,2.80
2019-03-16T01:18:49.028Z,3.10
2019-03-16T01:21:17.858Z,3.10
2019-03-16T01:23:46.465Z,3.00
2019-03-16T01:26:16.088Z,3.10
2019-03-16T01:28:48.747Z,3.00
2019-03-16T01:31:17.317Z,3.17
2019-03-16T01:34:00.627Z,3.30
2019-03-16T01:36:30.597Z,3.30
2019-03-16T01:39:01.030Z,3.02
2019-03-16T01:41:30.765Z,2.58
2019-03-16T01:44:25.320Z,3.00
2019-03-16T01:46:58.599Z,3.23
2019-03-16T01:49:33.842Z,3.60
2019-03-16T01:52:10.319Z,2.95
2019-03-16T01:54:45.246Z,2.93
2019-03-16T01:57:18.812Z,3.10
2019-03-16T02:00:13.749Z,2.43
2019-03-16T02:02:54.775Z,2.55
2019-03-16T02:05:25.288Z,2.50
2019-03-16T02:07:56.136Z,2.50
2019-03-16T02:10:44.316Z,2.50
2019-03-16T02:13:31.818Z,3.60
2019-03-16T02:16:10.894Z,2.27
2019-03-16T02:18:51.514Z,2.70
2019-03-16T02:21:22.189Z,2.60
2019-03-16T02:24:04.986Z,2.90
2019-03-16T02:26:41.513Z,3.20
2019-03-16T02:29:11.929Z,2.93
2019-03-16T02:31:53.102Z,3.08
2019-03-16T02:34:25.465Z,2.95
2019-03-16T02:36:56.021Z,3.30
2019-03-16T02:39:41.972Z,3.45
2019-03-16T02:42:12.631Z,3.30
2019-03-16T02:44:47.207Z,3.33
2019-03-16T02:47:24.117Z,3.42
2019-03-16T02:50:02.238Z,3.33
2019-03-16T02:52:40.164Z,3.43
2019-03-16T02:55:09.993Z,3.60
2019-03-16T02:58:11.581Z,3.40
2019-03-16T03:00:47.943Z,3.43
2019-03-16T03:03:57.686Z,3.10
2019-03-16T03:06:38.033Z,3.57
2019-03-16T03:09:21.542Z,3.40
2019-03-16T03:11:56.512Z,3.50
2019-03-16T03:14:30.002Z,3.63
2019-03-16T03:17:07.792Z,4.00
2019-03-16T03:19:41.244Z,3.80
2019-03-16T03:22:11.549Z,4.00
2019-03-16T03:24:44.268Z,3.97
2019-03-16T03:27:32.427Z,3.62
2019-03-16T03:30:02.513Z,3.50
2019-03-16T03:32:31.101Z,3.30
2019-03-16T03:35:04.515Z,3.10
2019-03-16T03:37:35.584Z,3.20
2019-03-16T03:40:22.273Z,3.17
2019-03-16T03:46:32.128Z,3.00
2019-03-16T03:48:59.436Z,3.10
2019-03-16T03:51:29.222Z,2.80
2019-03-16T03:53:59.390Z,2.87
2019-03-16T03:56:29.863Z,2.90
2019-03-16T03:59:00.457Z,3.00
2019-03-16T04:01:31.806Z,3.17
2019-03-16T04:04:14.105Z,2.67
2019-03-16T04:06:33.215Z,3.10
2019-03-16T04:09:06.863Z,3.70
2019-03-16T04:11:35.157Z,3.80
2019-03-16T04:14:03.704Z,4.15
2019-03-16T04:16:32.258Z,4.73
2019-03-16T04:19:00.901Z,4.73
2019-03-16T04:21:29.500Z,5.80
2019-03-16T04:23:58.058Z,5.33
2019-03-16T04:26:26.639Z,5.50
2019-03-16T04:28:55.178Z,5.30
2019-03-16T04:31:23.775Z,5.73
2019-03-16T04:33:52.303Z,5.50
2019-03-16T04:36:20.907Z,5.60
2019-03-16T04:38:49.533Z,5.70
2019-03-16T04:41:18.012Z,5.67
2019-03-16T04:43:46.599Z,5.25
2019-03-16T04:46:16.184Z,5.33
2019-03-16T04:48:44.673Z,5.43
2019-03-16T04:51:13.220Z,5.50
2019-03-16T04:53:41.742Z,5.13
2019-03-16T04:56:10.310Z,5.03
2019-03-16T04:58:38.779Z,5.00
2019-03-16T05:01:07.358Z,5.07
2019-03-16T05:03:35.921Z,4.80
2019-03-16T05:06:04.513Z,4.87
2019-03-16T05:08:33.064Z,4.87
2019-03-16T05:11:01.557Z,4.57
2019-03-16T05:13:30.120Z,4.90
2019-03-16T05:15:58.673Z,4.63
2019-03-16T05:18:27.223Z,4.53
2019-03-16T05:20:55.802Z,5.93
2019-03-16T05:23:24.269Z,5.80
2019-03-16T05:25:52.811Z,5.90
2019-03-16T05:28:21.399Z,5.13
2019-03-16T05:30:49.987Z,4.90
2019-03-16T05:33:18.547Z,4.80
2019-03-16T05:35:47.030Z,4.73
2019-03-16T05:38:15.520Z,4.50
2019-03-16T05:40:44.078Z,4.60
2019-03-16T05:43:12.569Z,4.70
2019-03-16T05:45:41.100Z,4.30
2019-03-16T05:48:09.584Z,4.03
2019-03-16T05:50:38.076Z,4.50
2019-03-16T05:53:06.607Z,4.70
2019-03-16T05:55:35.124Z,4.40
2019-03-16T05:58:03.591Z,4.07
2019-03-16T06:00:32.160Z,4.20
2019-03-16T06:03:00.714Z,3.80
2019-03-16T06:05:29.261Z,4.17
2019-03-16T06:07:57.772Z,4.03
2019-03-16T06:10:26.324Z,3.97
2019-03-16T06:12:54.802Z,3.50
2019-03-16T06:15:23.363Z,3.17
2019-03-16T06:17:51.955Z,3.07
2019-03-16T06:20:20.420Z,3.10
2019-03-16T06:22:49.002Z,3.20
2019-03-16T06:25:17.476Z,3.33
2019-03-16T06:27:46.057Z,2.70
2019-03-16T06:30:15.845Z,2.90
2019-03-16T06:32:44.548Z,3.20
2019-03-16T06:35:23.824Z,3.40
2019-03-16T06:37:43.451Z,3.00
2019-03-16T06:40:12.271Z,2.63
2019-03-16T06:42:40.735Z,2.70
2019-03-16T06:45:11.058Z,2.90
2019-03-16T06:47:39.720Z,2.40
2019-03-16T06:50:11.231Z,3.10
2019-03-16T06:52:39.913Z,2.53
2019-03-16T06:55:08.904Z,2.50
2019-03-16T06:57:37.442Z,2.57
2019-03-16T07:00:09.043Z,2.37
2019-03-16T07:02:37.663Z,2.63
2019-03-16T07:05:09.236Z,2.30
2019-03-16T07:07:37.764Z,2.40
2019-03-16T07:10:14.142Z,2.90
2019-03-16T07:12:42.824Z,2.63
2019-03-16T07:15:17.526Z,2.80
2019-03-16T07:17:46.059Z,2.90
2019-03-16T07:20:15.688Z,2.70
2019-03-16T07:22:44.406Z,2.70
2019-03-16T07:25:13.140Z,2.60
2019-03-16T07:27:41.723Z,2.40
2019-03-16T07:30:14.660Z,2.33
2019-03-16T07:32:43.272Z,2.63
2019-03-16T07:35:11.862Z,2.70
2019-03-16T07:37:40.358Z,2.20
2019-03-16T07:40:13.881Z,2.60
2019-03-16T07:42:42.450Z,2.50
2019-03-16T07:45:12.085Z,2.50
2019-03-16T07:47:40.683Z,2.60
2019-03-16T07:50:11.805Z,2.30
2019-03-16T07:52:40.487Z,2.60
2019-03-16T07:55:09.587Z,2.33
2019-03-16T07:57:40.317Z,2.03
2019-03-16T08:00:11.089Z,2.30
2019-03-16T08:02:39.985Z,2.13
2019-03-16T08:05:21.631Z,2.20
2019-03-16T08:07:50.246Z,2.20
2019-03-16T08:10:18.899Z,1.90
2019-03-16T08:12:47.372Z,2.13
2019-03-16T08:15:18.862Z,2.50
2019-03-16T08:17:47.330Z,2.30
2019-03-16T08:20:15.961Z,2.13
2019-03-16T08:22:44.461Z,2.40
2019-03-16T08:25:25.582Z,2.37
2019-03-16T08:27:54.874Z,2.43
2019-03-16T08:30:23.954Z,2.20
2019-03-16T08:32:52.459Z,2.20
2019-03-16T08:35:21.105Z,2.00
2019-03-16T08:37:49.713Z,2.17
2019-03-16T08:40:18.363Z,2.20
2019-03-16T08:42:46.843Z,2.20
2019-03-16T08:45:15.389Z,2.33
2019-03-16T08:47:43.975Z,2.17
2019-03-16T08:50:12.489Z,2.30
2019-03-16T08:52:41.064Z,2.03
2019-03-16T08:55:10.171Z,2.20
2019-03-16T08:57:38.870Z,2.20
2019-03-16T09:00:10.524Z,2.17
2019-03-16T09:02:39.049Z,2.07
2019-03-16T09:05:08.364Z,2.23
2019-03-16T09:07:37.026Z,2.10
2019-03-16T09:10:26.364Z,2.27
2019-03-16T09:12:55.501Z,2.20
2019-03-16T09:15:24.182Z,2.43
2019-03-16T09:17:52.767Z,2.60
2019-03-16T09:20:21.722Z,2.60
2019-03-16T09:22:50.255Z,2.67
2019-03-16T09:25:18.846Z,2.40
2019-03-16T09:27:47.362Z,2.30
2019-03-16T09:30:17.239Z,2.30
2019-03-16T09:32:45.843Z,2.40
2019-03-16T09:35:14.499Z,2.30
2019-03-16T09:37:43.087Z,2.27
2019-03-16T09:40:11.746Z,2.20
2019-03-16T09:42:40.395Z,2.20
2019-03-16T09:45:10.925Z,2.70
2019-03-16T09:47:40.143Z,2.60
2019-03-16T09:50:10.215Z,2.10
2019-03-16T09:52:39.121Z,2.30
2019-03-16T09:55:12.017Z,2.30
2019-03-16T09:57:40.684Z,2.30
2019-03-16T10:00:14.328Z,2.17
2019-03-16T10:02:42.967Z,2.10
2019-03-16T10:05:11.655Z,2.30
2019-03-16T10:07:40.193Z,2.20
2019-03-16T10:10:13.395Z,2.17
2019-03-16T10:12:42.014Z,2.20
2019-03-16T10:15:12.410Z,2.33
2019-03-16T10:17:41.041Z,2.10
2019-03-16T10:20:11.671Z,2.00
2019-03-16T10:22:40.382Z,1.87
2019-03-16T10:25:09.651Z,2.00
2019-03-16T10:27:49.156Z,2.37
2019-03-16T10:30:15.346Z,2.13
2019-03-16T10:32:44.134Z,2.20
2019-03-16T10:35:12.811Z,2.40
2019-03-16T10:37:41.372Z,2.90
2019-03-16T10:40:13.942Z,2.30
2019-03-16T10:42:42.703Z,2.57
2019-03-16T10:45:12.256Z,2.33
2019-03-16T10:47:40.888Z,2.60
2019-03-16T10:50:12.500Z,2.77
2019-03-16T10:52:41.117Z,2.60
2019-03-16T10:55:09.795Z,2.80
2019-03-16T10:57:38.376Z,2.40
2019-03-16T11:00:14.676Z,2.60
2019-03-16T11:02:43.206Z,2.70
2019-03-16T11:05:12.043Z,2.47
2019-03-16T11:07:40.521Z,2.50
2019-03-16T11:10:11.557Z,2.70
2019-03-16T11:12:40.088Z,2.50
2019-03-16T11:15:10.244Z,2.70
2019-03-16T11:17:38.969Z,2.63
2019-03-16T11:20:09.817Z,2.70
2019-03-16T11:22:38.377Z,2.40
2019-03-16T11:25:07.882Z,2.73
2019-03-16T11:27:36.488Z,2.80
2019-03-16T11:30:13.521Z,2.97
2019-03-16T11:32:42.187Z,2.63
2019-03-16T11:35:11.487Z,3.07
2019-03-16T11:37:40.124Z,2.90
2019-03-16T11:40:11.991Z,2.40
2019-03-16T11:42:40.494Z,2.67
2019-03-16T11:45:10.947Z,3.27
2019-03-16T11:47:39.597Z,3.30
2019-03-16T11:50:10.034Z,2.90
2019-03-16T11:52:38.711Z,3.00
2019-03-16T11:55:08.685Z,2.73
2019-03-16T11:57:37.842Z,2.90
2019-03-16T12:00:14.137Z,2.70
2019-03-16T12:02:42.683Z,2.90
2019-03-16T12:05:11.763Z,2.70
2019-03-16T12:07:40.371Z,3.00
2019-03-16T12:10:13.776Z,2.80
2019-03-16T12:12:42.374Z,2.70
2019-03-16T12:15:12.310Z,2.70
2019-03-16T12:17:40.887Z,2.80
2019-03-16T12:20:12.029Z,2.97
2019-03-16T12:22:40.705Z,2.77
2019-03-16T12:25:09.396Z,3.00
2019-03-16T12:27:37.974Z,2.73
2019-03-16T12:30:14.741Z,2.73
2019-03-16T12:32:43.330Z,2.83
2019-03-16T12:35:12.027Z,2.63
2019-03-16T12:37:40.554Z,2.60
2019-03-16T12:40:11.654Z,2.30
2019-03-16T12:42:40.234Z,2.73
2019-03-16T12:45:14.763Z,2.47
2019-03-16T12:47:43.376Z,2.43
2019-03-16T12:50:12.093Z,2.47
2019-03-16T12:52:40.696Z,2.40
2019-03-16T12:55:10.493Z,2.70
2019-03-16T12:57:39.130Z,3.20
2019-03-16T13:00:15.534Z,3.10
2019-03-16T13:02:44.076Z,2.80
2019-03-16T13:05:12.735Z,2.90
2019-03-16T13:07:41.385Z,2.83
2019-03-16T13:10:12.261Z,2.80
2019-03-16T13:12:40.940Z,2.60
2019-03-16T13:15:09.818Z,2.90
2019-03-16T13:17:38.520Z,2.43
2019-03-16T13:20:15.530Z,2.60
2019-03-16T13:22:44.132Z,2.90
2019-03-16T13:25:12.875Z,3.43
2019-03-16T13:27:41.436Z,3.70
2019-03-16T13:30:15.583Z,3.00
2019-03-16T13:32:44.158Z,2.83
2019-03-16T13:35:12.781Z,3.23
2019-03-16T13:37:41.430Z,2.90
2019-03-16T13:40:12.440Z,3.27
2019-03-16T13:42:41.003Z,3.20
2019-03-16T13:45:10.686Z,3.20
2019-03-16T13:47:39.285Z,2.83
2019-03-16T13:50:13.642Z,3.10
2019-03-16T13:52:42.487Z,2.97
2019-03-16T13:55:11.223Z,3.10
2019-03-16T13:57:39.842Z,2.90
2019-03-16T14:00:16.924Z,3.03
2019-03-16T14:02:45.950Z,3.10
2019-03-16T14:05:14.544Z,3.00
2019-03-16T14:07:43.475Z,2.80
2019-03-16T14:10:14.770Z,2.90
2019-03-16T14:12:44.320Z,2.83
2019-03-16T14:15:12.894Z,2.83
2019-03-16T14:17:41.646Z,2.63
2019-03-16T14:20:12.755Z,2.97
2019-03-16T14:22:41.396Z,2.90
2019-03-16T14:25:10.483Z,2.77
2019-03-16T14:27:39.227Z,2.80
2019-03-16T14:30:25.655Z,2.70
2019-03-16T14:32:44.241Z,2.60
2019-03-16T14:35:12.779Z,2.40
2019-03-16T14:37:41.326Z,2.60
2019-03-16T14:40:12.633Z,2.60
2019-03-16T14:42:41.495Z,2.63
2019-03-16T14:45:14.688Z,3.20
2019-03-16T14:47:43.291Z,2.63
2019-03-16T14:50:26.256Z,2.50
2019-03-16T14:52:54.869Z,2.57
2019-03-16T14:55:23.359Z,2.53
2019-03-16T14:57:51.865Z,2.40
2019-03-16T15:00:20.503Z,2.70
2019-03-16T15:02:52.022Z,2.50
2019-03-16T15:05:20.597Z,2.30
2019-03-16T15:07:50.069Z,2.57
2019-03-16T15:10:19.143Z,2.53
2019-03-16T15:12:47.810Z,2.90
2019-03-16T15:15:20.468Z,2.90
2019-03-16T15:17:49.054Z,2.60
2019-03-16T15:20:17.701Z,2.60
2019-03-16T15:22:46.358Z,2.30
2019-03-16T15:25:15.220Z,2.67
2019-03-16T15:27:46.043Z,2.60
2019-03-16T15:30:26.462Z,2.30
2019-03-16T15:32:55.116Z,2.43
2019-03-16T15:35:23.773Z,2.40
2019-03-16T15:37:52.286Z,3.30
2019-03-16T15:40:20.840Z,3.10
2019-03-16T15:42:49.426Z,2.50
2019-03-16T15:45:27.014Z,2.83
2019-03-16T15:47:55.612Z,3.30
2019-03-16T15:50:24.164Z,4.83
2019-03-16T15:52:52.825Z,3.50
2019-03-16T15:55:21.379Z,3.33
2019-03-16T15:57:49.948Z,2.90
2019-03-16T16:00:19.295Z,2.87
2019-03-16T16:02:49.591Z,4.10
2019-03-16T16:05:18.195Z,2.30
2019-03-16T16:07:59.629Z,1.93
2019-03-16T16:10:28.205Z,2.53
2019-03-16T16:12:56.690Z,2.40
2019-03-16T16:15:25.344Z,2.40
2019-03-16T16:17:53.847Z,2.30
2019-03-16T16:20:22.513Z,2.50
2019-03-16T16:22:51.942Z,2.10
2019-03-16T16:25:20.663Z,2.37
2019-03-16T16:27:49.218Z,2.10
2019-03-16T16:30:19.078Z,2.40
2019-03-16T16:32:47.655Z,2.30
2019-03-16T16:35:16.732Z,2.27
2019-03-16T16:37:45.349Z,1.97
2019-03-16T16:40:15.364Z,2.40
2019-03-16T16:42:43.933Z,2.10
2019-03-16T16:45:14.004Z,2.53
2019-03-16T16:47:42.596Z,8.40
2019-03-16T16:50:13.617Z,2.50
2019-03-16T16:52:42.255Z,2.50
2019-03-16T16:55:11.579Z,2.37
2019-03-16T16:57:40.330Z,2.30
2019-03-16T17:00:14.255Z,2.70
2019-03-16T17:02:42.858Z,2.50
2019-03-16T17:05:11.591Z,2.60
2019-03-16T17:07:40.202Z,2.90
2019-03-16T17:10:11.922Z,2.70
2019-03-16T17:12:40.558Z,2.57
2019-03-16T17:15:12.054Z,2.70
2019-03-16T17:17:40.828Z,2.80
2019-03-16T17:20:11.715Z,2.77
2019-03-16T17:22:40.244Z,3.17
2019-03-16T17:25:10.958Z,3.00
2019-03-16T17:27:39.679Z,2.93
2019-03-16T17:30:26.035Z,3.20
2019-03-16T17:32:54.564Z,3.27
2019-03-16T17:35:23.090Z,3.70
2019-03-16T17:37:51.845Z,3.77
2019-03-16T17:40:20.387Z,3.40
2019-03-16T17:42:49.053Z,3.43
2019-03-16T17:45:17.702Z,3.10
2019-03-16T17:47:46.300Z,3.27
2019-03-16T17:50:15.755Z,3.17
2019-03-16T17:52:44.388Z,2.87
2019-03-16T17:55:16.611Z,3.20
2019-03-16T17:57:45.795Z,2.70
2019-03-16T18:00:20.756Z,3.07
2019-03-16T18:02:52.353Z,2.93
2019-03-16T18:05:19.683Z,2.97
2019-03-16T18:07:48.272Z,2.77
2019-03-16T18:10:16.807Z,3.10
2019-03-16T18:12:45.548Z,4.53
2019-03-16T18:15:20.908Z,4.50
2019-03-16T18:17:49.552Z,3.20
2019-03-16T18:20:18.730Z,4.00
2019-03-16T18:22:47.982Z,4.10
2019-03-16T18:25:17.462Z,3.13
2019-03-16T18:27:45.990Z,2.53
2019-03-16T18:30:19.349Z,2.80
2019-03-16T18:32:47.922Z,2.60
2019-03-16T18:35:16.508Z,2.20
2019-03-16T18:37:45.170Z,2.53
2019-03-16T18:40:15.570Z,2.33
2019-03-16T18:42:44.207Z,2.50
2019-03-16T18:45:18.119Z,2.30
2019-03-16T18:47:46.733Z,3.90
2019-03-16T18:50:15.864Z,2.27
2019-03-16T18:52:44.344Z,2.40
2019-03-16T18:55:13.341Z,2.70
2019-03-16T18:57:42.070Z,2.60
2019-03-16T19:00:15.226Z,2.47
2019-03-16T19:02:43.824Z,2.77
2019-03-16T19:05:12.513Z,2.50
2019-03-16T19:07:41.151Z,2.10
2019-03-16T19:10:14.231Z,2.20
2019-03-16T19:12:43.254Z,3.20
2019-03-16T19:15:16.483Z,2.37
2019-03-16T19:17:57.552Z,2.53
2019-03-16T19:20:16.387Z,2.70
2019-03-16T19:22:44.873Z,2.47
2019-03-16T19:25:21.628Z,3.20
2019-03-16T19:27:50.332Z,2.33
2019-03-16T19:30:19.306Z,2.57
2019-03-16T19:32:47.930Z,2.53
2019-03-16T19:35:16.649Z,2.40
2019-03-16T19:37:45.222Z,2.73
2019-03-16T19:40:18.518Z,2.47
2019-03-16T19:42:48.026Z,2.57
2019-03-16T19:45:16.562Z,2.40
2019-03-16T19:47:45.131Z,2.47
2019-03-16T19:50:14.922Z,2.70
2019-03-16T19:52:43.607Z,2.03
2019-03-16T19:55:13.344Z,2.40
2019-03-16T19:57:41.990Z,2.77
2019-03-16T20:00:15.740Z,2.83
2019-03-16T20:02:50.217Z,3.13
2019-03-16T20:05:14.725Z,2.83
2019-03-16T20:07:46.013Z,2.80
2019-03-16T20:10:19.608Z,3.10
2019-03-16T20:12:48.206Z,3.10
2019-03-16T20:15:17.048Z,2.87
2019-03-16T20:17:45.748Z,2.70
2019-03-16T20:20:15.162Z,3.37
2019-03-16T20:22:43.734Z,2.93
2019-03-16T20:25:33.343Z,2.70
2019-03-16T20:28:02.806Z,2.70
2019-03-16T20:30:32.127Z,3.97
2019-03-16T20:33:04.524Z,2.30
2019-03-16T20:35:32.318Z,2.70
2019-03-16T20:38:00.979Z,3.30
2019-03-16T20:40:29.638Z,2.77
2019-03-16T20:42:58.525Z,3.10
2019-03-16T20:45:27.222Z,2.50
2019-03-16T20:47:55.851Z,2.53
2019-03-16T20:50:24.311Z,2.77
2019-03-16T20:52:59.356Z,2.70
2019-03-16T20:55:28.011Z,2.50
2019-03-16T20:57:56.646Z,3.13
2019-03-16T21:00:25.900Z,2.73
2019-03-16T21:02:54.448Z,2.67
2019-03-16T21:05:25.540Z,3.07
2019-03-16T21:07:54.146Z,2.70
2019-03-16T21:10:41.159Z,2.50
2019-03-16T21:13:14.459Z,3.80
2019-03-16T21:15:42.671Z,2.27
2019-03-16T21:18:14.492Z,2.00
2019-03-16T21:20:43.138Z,2.30
2019-03-16T21:23:11.718Z,2.30
2019-03-16T21:25:40.741Z,2.30
2019-03-16T21:28:11.404Z,2.90
2019-03-16T21:30:39.948Z,2.17
2019-03-16T21:33:08.518Z,2.57
2019-03-16T21:35:38.547Z,2.00
2019-03-16T21:38:08.479Z,2.20
2019-03-16T21:40:37.023Z,2.10
2019-03-16T21:43:05.510Z,2.40
2019-03-16T21:45:34.075Z,2.13
2019-03-16T21:48:02.738Z,2.50
2019-03-16T21:50:31.380Z,2.30
2019-03-16T21:53:00.047Z,2.50
2019-03-16T21:55:28.571Z,2.20
2019-03-16T21:57:57.031Z,2.13
2019-03-16T22:00:25.540Z,2.63
2019-03-16T22:02:54.026Z,2.30
2019-03-16T22:05:22.722Z,2.53
2019-03-16T22:07:51.308Z,2.10
2019-03-16T22:10:19.934Z,2.60
2019-03-16T22:12:48.408Z,2.00
2019-03-16T22:15:17.506Z,2.33
2019-03-16T22:17:49.532Z,2.17
2019-03-16T22:20:19.142Z,2.03
2019-03-16T22:22:47.737Z,2.40
2019-03-16T22:25:16.469Z,2.13
2019-03-16T22:27:45.289Z,2.07
2019-03-16T22:30:16.950Z,2.13
2019-03-16T22:32:45.607Z,2.13
2019-03-16T22:35:14.353Z,1.90
2019-03-16T22:37:43.092Z,3.10
2019-03-16T22:40:15.362Z,2.30
2019-03-16T22:42:44.304Z,2.20
2019-03-16T22:45:13.928Z,2.40
2019-03-16T22:47:42.569Z,2.60
2019-03-16T22:50:13.042Z,2.20
2019-03-16T22:52:41.625Z,2.40
2019-03-16T22:55:10.248Z,2.53
2019-03-16T22:57:38.757Z,2.40
2019-03-16T23:00:13.358Z,1.83
2019-03-16T23:02:42.074Z,2.10
2019-03-16T23:05:11.385Z,2.10
2019-03-16T23:07:40.091Z,2.60
2019-03-16T23:10:12.471Z,2.53
2019-03-16T23:12:41.045Z,2.17
2019-03-16T23:15:10.795Z,2.47
2019-03-16T23:17:39.470Z,2.30
2019-03-16T23:20:09.850Z,2.50
2019-03-16T23:22:38.467Z,2.40
2019-03-16T23:25:08.489Z,1.90
2019-03-16T23:27:37.036Z,2.33
2019-03-16T23:30:07.914Z,2.53
2019-03-16T23:32:36.578Z,2.60
2019-03-16T23:35:06.551Z,2.20
2019-03-16T23:37:35.088Z,2.27
2019-03-16T23:40:05.572Z,2.33
2019-03-16T23:42:34.405Z,2.20
2019-03-16T23:45:05.324Z,2.60
2019-03-16T23:47:34.142Z,2.20
2019-03-16T23:50:05.130Z,2.33
2019-03-16T23:52:36.830Z,2.13
2019-03-16T23:55:06.894Z,2.00
2019-03-16T23:57:36.232Z,1.90
